Grottaglie, Italy

4:26 AM CET on February 09, 2016 (GMT +0100)
Taranto | | Change Station
CLOSE
Current Station
Personal Weather Station
Location: Taranto, PUGLIA
Elevation: 42 ft
Nearby Weather Stations

Elev 42 ft 40.47 °N, 17.24 °E | Updated 1 minute ago

Clear
Clear
53.9 °F
Feels Like 53.9 °F
N
0.0
Wind Variable Wind from SE
Gusts 0.0 mph

Today
High -- | Low -- °F
--% Chance of Precip.
Yesterday
High -- | Low -- °F
Precip. -- in
Pressure 30.12 in
Visibility -9999.0 miles
Clouds
Dew Point 51 °F
Humidity 91%
Rainfall 0.00 in
Snow Depth Not available.
6:52 AM 5:17 PM
New Moon, 0% visible
METAR LIBH 090255Z 30003KT CAVOK 09/08 Q1020 RMK FEW FEW200 QUK / QUL / VIS MAR 12 KM VIS MIN 9999
Pressure 30.12 in
Visibility -9999.0 miles
Clouds
Dew Point 51 °F
Humidity 91%
Rainfall 0.00 in
Snow Depth Not available.
6:52 AM 5:17 PM
New Moon, 0% visible
METAR LIBH 090255Z 30003KT CAVOK 09/08 Q1020 RMK FEW FEW200 QUK / QUL / VIS MAR 12 KM VIS MIN 9999

10-Day Weather Forecast

Almanac

Astronomy

Feb. 09, 2016 Rise Set
Actual Time
Civil Twilight
Nautical Twilight
Astronomical Twilight
Moon
Length of Visible Light
Length of Day
Tomorrow will be .
, % of the Moon is Illuminated

Today's Extremes

Country Highs Country Lows

Community

WunderPhotos

Upload Photos

1,891,527 photos uploaded!

WunderBlog® & News

Nearby

Air Quality

  Air Quality AQ Index Pollutant
Not available.

Snow Depth

Station Depth Elevation

Earthquake Activity

City Distance Mag. Time & Date
Minimum magnitude displayed is 2.5.

Coastal Water Temperatures

Place Temperature

Stations

Nearby Weather Stations

Station Location Temp. Windchill Dew Point Humidity Wind Precip. Elev Updated Type